createdAt,value
2023-02-08T00:00:51.072Z,1.10
2023-02-08T00:05:44.114Z,1.08
2023-02-08T00:10:39.616Z,1.07
2023-02-08T00:15:36.044Z,1.05
2023-02-08T00:20:35.298Z,1.02
2023-02-08T00:25:41.404Z,1.01
2023-02-08T00:30:37.796Z,0.99
2023-02-08T00:35:42.692Z,0.96
2023-02-08T00:40:38.239Z,0.93
2023-02-08T00:45:34.294Z,0.90
2023-02-08T00:50:30.457Z,0.86
2023-02-08T00:55:41.060Z,0.84
2023-02-08T01:00:46.899Z,0.82
2023-02-08T01:11:34.213Z,0.88
2023-02-08T01:16:48.659Z,0.86
2023-02-08T01:21:55.033Z,0.83
2023-02-08T01:26:48.678Z,0.87
2023-02-08T01:31:46.205Z,0.83
2023-02-08T01:37:01.941Z,0.82
2023-02-08T01:42:29.223Z,0.81
2023-02-08T01:47:25.732Z,0.77
2023-02-08T01:52:45.168Z,0.73
2023-02-08T01:57:46.840Z,0.65
2023-02-08T02:02:53.585Z,0.59
2023-02-08T02:08:00.943Z,0.59
2023-02-08T02:13:10.094Z,0.57
2023-02-08T02:18:28.796Z,0.54
2023-02-08T02:23:59.618Z,0.54
2023-02-08T02:29:18.102Z,0.55
2023-02-08T02:34:56.755Z,0.55
2023-02-08T02:40:18.374Z,0.60
2023-02-08T02:45:56.225Z,0.57
2023-02-08T02:51:32.054Z,0.55
2023-02-08T02:56:49.301Z,0.52
2023-02-08T03:02:00.546Z,0.51
2023-02-08T03:13:35.938Z,0.44
2023-02-08T03:19:15.975Z,0.44
2023-02-08T03:24:50.863Z,0.43
2023-02-08T03:30:11.474Z,0.43
2023-02-08T03:35:16.678Z,0.38
2023-02-08T03:40:29.202Z,0.34
2023-02-08T03:45:50.802Z,0.32
2023-02-08T03:51:11.992Z,0.33
2023-02-08T04:07:25.687Z,0.36
2023-02-08T04:12:36.255Z,0.36
2023-02-08T04:17:32.447Z,0.34
2023-02-08T04:22:44.332Z,0.35
2023-02-08T04:27:48.833Z,0.35
2023-02-08T04:33:12.843Z,0.34
2023-02-08T04:38:14.290Z,0.37
2023-02-08T04:43:08.491Z,0.41
2023-02-08T04:48:07.072Z,0.43
2023-02-08T04:52:59.933Z,0.43
2023-02-08T04:57:53.069Z,0.46
2023-02-08T05:02:46.701Z,0.49
2023-02-08T05:07:39.470Z,0.51
2023-02-08T05:12:32.481Z,0.49
2023-02-08T05:17:25.303Z,0.46
2023-02-08T05:22:18.130Z,0.43
2023-02-08T05:27:11.026Z,0.43
2023-02-08T05:32:05.423Z,0.43
2023-02-08T05:36:58.385Z,0.42
2023-02-08T05:41:51.250Z,0.39
2023-02-08T05:46:45.191Z,0.34
2023-02-08T05:51:37.980Z,0.36
2023-02-08T05:56:31.643Z,0.40
2023-02-08T06:01:24.445Z,0.42
2023-02-08T06:06:17.221Z,0.40
2023-02-08T06:11:10.166Z,0.42
2023-02-08T06:16:12.239Z,0.40
2023-02-08T06:21:05.545Z,0.42
2023-02-08T06:25:58.508Z,0.49
2023-02-08T06:30:52.634Z,0.50
2023-02-08T06:35:48.928Z,0.45
2023-02-08T06:40:42.554Z,0.48
2023-02-08T06:45:35.667Z,0.51
2023-02-08T06:50:28.820Z,0.55
2023-02-08T06:55:21.636Z,0.66
2023-02-08T07:00:15.131Z,0.73
2023-02-08T07:05:09.550Z,0.80
2023-02-08T07:10:02.764Z,0.88
2023-02-08T07:14:55.537Z,0.93
2023-02-08T07:19:48.341Z,1.01
2023-02-08T07:24:42.726Z,1.10
2023-02-08T07:29:37.932Z,1.16
2023-02-08T07:34:32.169Z,1.24
2023-02-08T07:39:25.355Z,1.26
2023-02-08T07:44:18.216Z,1.27
2023-02-08T07:49:11.412Z,1.35
2023-02-08T07:54:04.796Z,1.43
2023-02-08T07:58:57.725Z,1.51
2023-02-08T08:03:52.055Z,1.57
2023-02-08T08:08:47.630Z,1.67
2023-02-08T08:13:40.539Z,1.79
2023-02-08T08:18:33.365Z,1.82
2023-02-08T08:23:28.484Z,1.83
2023-02-08T08:28:25.015Z,1.94
2023-02-08T08:33:17.961Z,2.06
2023-02-08T08:38:11.335Z,2.16
2023-02-08T08:43:04.454Z,2.23
2023-02-08T08:47:57.340Z,2.32
2023-02-08T08:52:52.921Z,2.38
2023-02-08T08:57:45.821Z,2.43
2023-02-08T09:02:39.839Z,2.47
2023-02-08T09:07:36.457Z,2.65
2023-02-08T09:12:30.129Z,2.83
2023-02-08T09:17:23.139Z,2.92
2023-02-08T09:22:18.880Z,3.06
2023-02-08T09:27:11.831Z,3.22
2023-02-08T09:32:05.373Z,3.65
2023-02-08T09:36:58.273Z,3.76
2023-02-08T09:42:08.194Z,3.85
2023-02-08T09:47:21.495Z,3.98
2023-02-08T09:52:22.494Z,4.03
2023-02-08T09:57:19.616Z,4.13
2023-02-08T10:02:45.128Z,4.02
2023-02-08T10:07:38.449Z,3.76
2023-02-08T10:12:55.952Z,3.87
2023-02-08T10:18:06.408Z,4.02
2023-02-08T10:23:05.066Z,4.02
2023-02-08T10:28:32.069Z,3.91
2023-02-08T10:33:43.945Z,3.99
2023-02-08T10:38:46.887Z,4.27
2023-02-08T10:43:47.472Z,4.21
2023-02-08T10:49:01.977Z,4.09
2023-02-08T10:53:55.366Z,3.88
2023-02-08T10:58:48.256Z,3.75
2023-02-08T11:04:11.395Z,3.43
2023-02-08T11:09:06.980Z,3.25
2023-02-08T11:14:18.594Z,3.29
2023-02-08T11:19:26.204Z,3.25
2023-02-08T11:24:31.004Z,3.23
2023-02-08T11:29:27.267Z,3.42
2023-02-08T11:34:26.344Z,3.53
2023-02-08T11:39:40.861Z,3.58
2023-02-08T11:44:44.828Z,3.60
2023-02-08T11:49:43.288Z,3.78
2023-02-08T11:54:42.895Z,4.03
2023-02-08T11:59:35.789Z,4.14
2023-02-08T12:04:28.608Z,4.11
2023-02-08T12:09:48.793Z,4.11
2023-02-08T12:15:01.993Z,4.16
2023-02-08T12:20:13.616Z,4.18
2023-02-08T12:25:42.561Z,4.16
2023-02-08T12:30:43.719Z,4.28
2023-02-08T12:36:18.341Z,4.44
2023-02-08T12:41:30.237Z,4.85
2023-02-08T12:46:42.474Z,5.10
2023-02-08T12:52:01.799Z,5.17
2023-02-08T12:57:02.450Z,4.87
2023-02-08T13:02:01.937Z,4.73
2023-02-08T13:06:59.896Z,4.86
2023-02-08T13:12:06.367Z,5.24
2023-02-08T13:17:05.982Z,5.43
2023-02-08T13:22:00.944Z,5.67
2023-02-08T13:26:54.992Z,5.94
2023-02-08T13:32:00.328Z,6.03
2023-02-08T13:37:16.582Z,5.91
2023-02-08T13:42:48.553Z,5.71
2023-02-08T13:47:47.345Z,5.44
2023-02-08T13:52:48.028Z,5.10
2023-02-08T13:57:56.699Z,4.88
2023-02-08T14:03:20.917Z,4.64
2023-02-08T14:08:45.844Z,4.37
2023-02-08T14:13:49.114Z,3.99
2023-02-08T14:18:53.067Z,3.71
2023-02-08T14:23:46.000Z,3.51
2023-02-08T14:28:45.024Z,3.28
2023-02-08T14:33:41.939Z,3.08
2023-02-08T14:38:52.103Z,2.91
2023-02-08T14:43:48.857Z,2.66
2023-02-08T14:48:51.018Z,2.43
2023-02-08T14:53:45.118Z,2.10
2023-02-08T14:58:42.633Z,1.82
2023-02-08T15:03:36.362Z,1.57
2023-02-08T15:08:29.180Z,1.36
2023-02-08T15:13:25.336Z,1.16
2023-02-08T15:18:25.950Z,0.96
2023-02-08T15:23:24.455Z,0.77
2023-02-08T15:28:21.929Z,0.59
2023-02-08T15:33:18.049Z,0.45
2023-02-08T15:38:20.316Z,0.28
2023-02-08T15:43:14.544Z,0.17
2023-02-08T15:48:08.720Z,0.06
2023-02-08T15:53:07.444Z,-0.08
2023-02-08T15:58:07.207Z,-0.19
2023-02-08T16:03:19.047Z,-0.31
2023-02-08T16:08:23.974Z,-0.40
2023-02-08T16:13:40.168Z,-0.49
2023-02-08T16:18:46.309Z,-0.61
2023-02-08T16:23:40.398Z,-0.70
2023-02-08T16:28:34.922Z,-0.85
2023-02-08T16:33:28.560Z,-1.01
2023-02-08T16:38:24.283Z,-1.09
2023-02-08T16:43:19.028Z,-1.22
2023-02-08T16:48:35.061Z,-1.34
2023-02-08T16:53:41.414Z,-1.41
2023-02-08T16:58:34.802Z,-1.45
2023-02-08T17:03:27.954Z,-1.53
2023-02-08T17:08:22.458Z,-1.56
2023-02-08T17:13:21.065Z,-1.67
2023-02-08T17:18:14.676Z,-1.74
2023-02-08T17:23:07.956Z,-1.78
2023-02-08T17:28:03.786Z,-1.88
2023-02-08T17:32:57.457Z,-1.94
2023-02-08T17:37:53.162Z,-2.00
2023-02-08T17:42:47.647Z,-2.11
2023-02-08T17:47:42.690Z,-2.22
2023-02-08T17:52:37.174Z,-2.30
2023-02-08T17:57:35.384Z,-2.37
2023-02-08T18:02:28.361Z,-2.48
2023-02-08T18:07:21.691Z,-2.52
2023-02-08T18:12:14.497Z,-2.62
2023-02-08T18:17:07.335Z,-2.68
2023-02-08T18:22:03.744Z,-2.69
2023-02-08T18:26:58.341Z,-2.70
2023-02-08T18:31:53.049Z,-2.82
2023-02-08T18:36:46.777Z,-2.93
2023-02-08T18:41:39.570Z,-2.98
2023-02-08T18:46:33.168Z,-3.02
2023-02-08T18:51:27.800Z,-3.07
2023-02-08T18:56:24.335Z,-3.10
2023-02-08T19:01:21.032Z,-3.19
2023-02-08T19:06:18.248Z,-3.26
2023-02-08T19:11:19.786Z,-3.24
2023-02-08T19:16:13.895Z,-3.30
2023-02-08T19:21:13.029Z,-3.42
2023-02-08T19:26:09.026Z,-3.49
2023-02-08T19:31:11.028Z,-3.59
2023-02-08T19:36:11.943Z,-3.70
2023-02-08T19:41:06.144Z,-3.70
2023-02-08T19:46:00.173Z,-3.75
2023-02-08T19:50:58.458Z,-3.75
2023-02-08T19:56:03.804Z,-3.83
2023-02-08T20:00:56.767Z,-3.91
2023-02-08T20:05:51.076Z,-3.97
2023-02-08T20:10:47.177Z,-4.07
2023-02-08T20:15:42.393Z,-4.08
2023-02-08T20:20:37.001Z,-4.10
2023-02-08T20:25:30.681Z,-4.14
2023-02-08T20:30:25.278Z,-4.23
2023-02-08T20:35:18.836Z,-4.25
2023-02-08T20:40:13.283Z,-4.27
2023-02-08T20:45:07.350Z,-4.31
2023-02-08T20:50:03.161Z,-4.33
2023-02-08T20:55:03.136Z,-4.37
2023-02-08T20:59:56.277Z,-4.42
2023-02-08T21:04:49.686Z,-4.47
2023-02-08T21:09:43.436Z,-4.52
2023-02-08T21:14:36.676Z,-4.58
2023-02-08T21:19:31.254Z,-4.62
2023-02-08T21:24:25.255Z,-4.65
2023-02-08T21:29:18.100Z,-4.71
2023-02-08T21:34:12.972Z,-4.76
2023-02-08T21:39:05.808Z,-4.81
2023-02-08T21:44:00.765Z,-4.81
2023-02-08T21:49:13.431Z,-4.90
2023-02-08T21:54:24.513Z,-4.91
2023-02-08T21:59:17.314Z,-4.99
2023-02-08T22:04:10.117Z,-5.06
2023-02-08T22:09:02.965Z,-5.12
2023-02-08T22:13:55.762Z,-5.18
2023-02-08T22:18:48.583Z,-5.25
2023-02-08T22:23:41.389Z,-5.26
2023-02-08T22:28:34.282Z,-5.31
2023-02-08T22:33:27.143Z,-5.39
2023-02-08T22:38:19.988Z,-5.36
2023-02-08T22:43:12.775Z,-5.35
2023-02-08T22:48:06.798Z,-5.44
2023-02-08T22:52:59.745Z,-5.48
2023-02-08T22:57:52.544Z,-5.48
2023-02-08T23:02:45.843Z,-5.49
2023-02-08T23:07:39.309Z,-5.48
2023-02-08T23:12:32.305Z,-5.52
2023-02-08T23:17:25.201Z,-5.53
2023-02-08T23:22:18.000Z,-5.54
2023-02-08T23:27:14.822Z,-5.60
2023-02-08T23:32:07.693Z,-5.66
2023-02-08T23:37:00.535Z,-5.70
2023-02-08T23:41:57.244Z,-5.77
2023-02-08T23:46:50.114Z,-5.81
2023-02-08T23:51:45.719Z,-5.90
2023-02-08T23:56:38.579Z,-5.88
